createdAt,value
2019-06-01T00:01:16.041Z,99.90
2019-06-01T00:03:48.500Z,99.90
2019-06-01T00:06:18.539Z,99.90
2019-06-01T00:08:49.311Z,99.90
2019-06-01T00:11:19.221Z,99.80
2019-06-01T00:13:49.694Z,99.80
2019-06-01T00:16:19.588Z,99.70
2019-06-01T00:18:50.392Z,99.70
2019-06-01T00:21:20.102Z,99.60
2019-06-01T00:23:49.760Z,99.50
2019-06-01T00:26:19.408Z,99.50
2019-06-01T00:28:50.015Z,99.80
2019-06-01T00:31:19.744Z,99.90
2019-06-01T00:33:52.931Z,99.90
2019-06-01T00:36:23.595Z,99.90
2019-06-01T00:38:54.402Z,99.90
2019-06-01T00:41:24.071Z,99.90
2019-06-01T00:43:53.724Z,99.90
2019-06-01T00:46:23.420Z,99.90
2019-06-01T00:48:54.185Z,99.90
2019-06-01T00:51:24.021Z,99.90
2019-06-01T00:53:55.341Z,99.90
2019-06-01T00:56:25.027Z,99.90
2019-06-01T00:58:54.698Z,99.90
2019-06-01T01:01:24.344Z,99.90
2019-06-01T01:03:54.439Z,99.90
2019-06-01T01:06:24.078Z,99.90
2019-06-01T01:08:54.980Z,99.90
2019-06-01T01:11:24.854Z,99.90
2019-06-01T01:13:55.726Z,99.90
2019-06-01T01:16:25.408Z,99.90
2019-06-01T01:18:55.935Z,99.90
2019-06-01T01:21:25.916Z,99.90
2019-06-01T01:23:56.699Z,99.90
2019-06-01T01:26:26.560Z,99.90
2019-06-01T01:28:56.976Z,99.90
2019-06-01T01:31:26.859Z,99.90
2019-06-01T01:33:57.549Z,99.90
2019-06-01T01:36:27.385Z,99.90
2019-06-01T01:38:58.263Z,99.90
2019-06-01T01:41:29.632Z,99.90
2019-06-01T01:43:59.325Z,99.90
2019-06-01T01:46:28.963Z,99.90
2019-06-01T01:48:58.636Z,99.90
2019-06-01T01:51:28.234Z,99.90
2019-06-01T01:53:58.795Z,99.90
2019-06-01T01:56:28.782Z,99.90
2019-06-01T01:58:58.473Z,99.90
2019-06-01T02:01:28.148Z,99.90
2019-06-01T02:03:58.980Z,99.90
2019-06-01T02:06:29.533Z,99.90
2019-06-01T02:08:59.474Z,99.90
2019-06-01T02:11:29.275Z,99.90
2019-06-01T02:13:59.954Z,99.90
2019-06-01T02:16:29.885Z,99.90
2019-06-01T02:19:00.554Z,99.90
2019-06-01T02:21:30.311Z,99.90
2019-06-01T02:24:01.256Z,99.90
2019-06-01T02:26:31.179Z,99.90
2019-06-01T02:29:02.328Z,99.90
2019-06-01T02:31:41.466Z,99.90
2019-06-01T02:34:05.839Z,99.90
2019-06-01T02:36:34.755Z,99.90
2019-06-01T02:39:07.388Z,99.90
2019-06-01T02:41:37.145Z,99.90
2019-06-01T02:44:06.805Z,99.90
2019-06-01T02:46:36.459Z,99.90
2019-06-01T02:49:06.393Z,99.90
2019-06-01T02:51:36.434Z,99.90
2019-06-01T02:54:06.358Z,99.90
2019-06-01T02:56:36.203Z,99.90
2019-06-01T02:59:06.779Z,99.90
2019-06-01T03:01:38.429Z,99.90
2019-06-01T03:04:10.303Z,99.90
2019-06-01T03:06:40.875Z,99.90
2019-06-01T03:09:10.968Z,99.90
2019-06-01T03:11:42.129Z,99.90
2019-06-01T03:14:12.650Z,99.90
2019-06-01T03:16:43.194Z,99.90
2019-06-01T03:19:14.470Z,99.90
2019-06-01T03:21:47.057Z,99.90
2019-06-01T03:24:18.252Z,99.90
2019-06-01T03:26:47.946Z,99.90
2019-06-01T03:29:20.143Z,99.90
2019-06-01T03:31:50.234Z,99.90
2019-06-01T03:34:19.924Z,99.90
2019-06-01T03:36:49.558Z,99.90
2019-06-01T03:39:19.788Z,99.90
2019-06-01T03:41:49.499Z,99.90
2019-06-01T03:44:19.123Z,99.90
2019-06-01T03:46:48.693Z,99.90
2019-06-01T03:49:18.336Z,99.90
2019-06-01T03:51:48.000Z,99.90
2019-06-01T03:54:17.628Z,99.90
2019-06-01T03:56:47.253Z,99.90
2019-06-01T03:59:16.902Z,99.90
2019-06-01T04:01:47.253Z,99.90
2019-06-01T04:04:20.566Z,99.90
2019-06-01T04:06:50.203Z,99.90
2019-06-01T04:09:19.842Z,99.90
2019-06-01T04:11:49.476Z,99.90
2019-06-01T04:14:19.105Z,99.90
2019-06-01T04:16:48.765Z,99.90
2019-06-01T04:19:18.389Z,99.90
2019-06-01T04:21:48.036Z,99.90
2019-06-01T04:24:17.696Z,99.90
2019-06-01T04:26:47.361Z,99.90
2019-06-01T04:29:16.959Z,99.90
2019-06-01T04:31:46.591Z,99.90
2019-06-01T04:34:16.224Z,99.90
2019-06-01T04:36:45.798Z,99.90
2019-06-01T04:39:15.417Z,99.90
2019-06-01T04:41:45.074Z,99.90
2019-06-01T04:44:14.675Z,99.90
2019-06-01T04:46:47.097Z,99.90
2019-06-01T04:49:16.767Z,99.90
2019-06-01T04:51:46.364Z,99.90
2019-06-01T04:54:17.593Z,99.90
2019-06-01T04:56:47.217Z,99.90
2019-06-01T04:59:16.828Z,99.60
2019-06-01T05:01:46.528Z,99.30
2019-06-01T05:04:16.184Z,99.30
2019-06-01T05:06:45.795Z,99.30
2019-06-01T05:09:15.810Z,98.90
2019-06-01T05:11:45.727Z,98.40
2019-06-01T05:14:16.543Z,97.70
2019-06-01T05:16:46.431Z,96.90
2019-06-01T05:19:16.658Z,94.70
2019-06-01T05:21:46.710Z,93.10
2019-06-01T05:24:17.149Z,92.30
2019-06-01T05:26:47.159Z,91.40
2019-06-01T05:29:18.038Z,90.80
2019-06-01T05:31:47.992Z,90.20
2019-06-01T05:34:18.768Z,89.40
2019-06-01T05:36:48.616Z,87.90
2019-06-01T05:39:18.839Z,87.40
2019-06-01T05:41:48.621Z,86.10
2019-06-01T05:44:19.224Z,85.70
2019-06-01T05:46:49.745Z,85.30
2019-06-01T05:49:19.366Z,85.10
2019-06-01T05:51:49.049Z,85.10
2019-06-01T05:54:18.963Z,85.10
2019-06-01T05:56:50.410Z,85.20
2019-06-01T05:59:20.011Z,84.10
2019-06-01T06:01:49.695Z,83.00
2019-06-01T06:04:19.569Z,83.00
2019-06-01T06:06:49.345Z,82.90
2019-06-01T06:09:19.153Z,81.70
2019-06-01T06:11:49.009Z,81.00
2019-06-01T06:14:20.650Z,81.20
2019-06-01T06:16:50.892Z,80.70
2019-06-01T06:19:22.233Z,79.60
2019-06-01T06:21:51.931Z,77.40
2019-06-01T06:24:22.618Z,78.10
2019-06-01T06:26:52.640Z,76.40
2019-06-01T06:29:23.008Z,75.10
2019-06-01T06:31:52.819Z,75.00
2019-06-01T06:34:23.554Z,76.20
2019-06-01T06:36:53.372Z,75.40
2019-06-01T06:39:24.285Z,75.60
2019-06-01T06:41:53.995Z,76.10
2019-06-01T06:44:24.989Z,75.90
2019-06-01T06:46:54.545Z,75.40
2019-06-01T06:49:25.402Z,74.00
2019-06-01T06:51:55.331Z,74.80
2019-06-01T06:54:25.987Z,74.80
2019-06-01T06:56:55.902Z,73.20
2019-06-01T06:59:26.598Z,73.10
2019-06-01T07:01:56.580Z,74.30
2019-06-01T07:04:27.380Z,72.40
2019-06-01T07:06:57.524Z,71.40
2019-06-01T07:09:28.219Z,70.60
2019-06-01T07:11:58.196Z,71.50
2019-06-01T07:14:27.886Z,70.90
2019-06-01T07:16:57.467Z,70.00
2019-06-01T07:19:27.901Z,71.10
2019-06-01T07:21:57.699Z,71.70
2019-06-01T07:24:28.104Z,71.60
2019-06-01T07:26:57.970Z,71.50
2019-06-01T07:29:28.396Z,70.70
2019-06-01T07:31:58.649Z,71.50
2019-06-01T07:34:39.751Z,70.40
2019-06-01T07:37:01.545Z,68.70
2019-06-01T07:39:31.224Z,68.90
2019-06-01T07:42:01.002Z,67.70
2019-06-01T07:44:30.604Z,67.80
2019-06-01T07:47:00.310Z,68.20
2019-06-01T07:49:31.111Z,67.30
2019-06-01T07:52:12.095Z,66.00
2019-06-01T07:54:32.732Z,67.10
2019-06-01T07:57:02.544Z,67.40
2019-06-01T07:59:32.573Z,69.10
2019-06-01T08:02:02.452Z,69.60
2019-06-01T08:04:50.572Z,66.80
2019-06-01T08:07:03.615Z,65.20
2019-06-01T08:09:33.488Z,65.40
2019-06-01T08:12:03.159Z,61.30
2019-06-01T08:14:32.939Z,61.80
2019-06-01T08:17:02.637Z,63.70
2019-06-01T08:19:33.429Z,64.60
2019-06-01T08:22:03.174Z,66.00
2019-06-01T08:24:32.890Z,65.90
2019-06-01T08:27:02.595Z,67.40
2019-06-01T08:29:32.871Z,64.00
2019-06-01T08:32:02.653Z,64.30
2019-06-01T08:34:33.128Z,63.50
2019-06-01T08:37:03.423Z,64.30
2019-06-01T08:39:34.185Z,64.00
2019-06-01T08:42:04.002Z,64.20
2019-06-01T08:44:33.803Z,63.20
2019-06-01T08:47:03.839Z,64.30
2019-06-01T08:49:34.522Z,65.20
2019-06-01T08:52:04.766Z,67.00
2019-06-01T08:54:34.478Z,62.40
2019-06-01T08:57:04.238Z,61.60
2019-06-01T08:59:34.575Z,62.10
2019-06-01T09:02:04.626Z,61.60
2019-06-01T09:04:41.129Z,60.40
2019-06-01T09:07:10.797Z,59.10
2019-06-01T09:09:42.765Z,61.10
2019-06-01T09:12:12.466Z,62.40
2019-06-01T09:14:42.171Z,62.80
2019-06-01T09:17:11.913Z,61.90
2019-06-01T09:19:41.608Z,61.30
2019-06-01T09:22:12.768Z,60.60
2019-06-01T09:24:42.383Z,61.80
2019-06-01T09:27:12.178Z,62.70
2019-06-01T09:29:44.690Z,64.20
2019-06-01T09:32:13.097Z,64.80
2019-06-01T09:34:42.729Z,63.70
2019-06-01T09:37:12.451Z,63.50
2019-06-01T09:39:42.018Z,63.40
2019-06-01T09:42:11.604Z,62.80
2019-06-01T09:44:41.260Z,63.10
2019-06-01T09:47:10.963Z,61.50
2019-06-01T09:49:40.590Z,58.20
2019-06-01T09:52:12.399Z,58.90
2019-06-01T09:54:41.495Z,59.40
2019-06-01T09:57:11.048Z,60.00
2019-06-01T09:59:40.736Z,61.60
2019-06-01T10:02:10.746Z,62.90
2019-06-01T10:04:40.974Z,56.10
2019-06-01T10:07:10.628Z,56.90
2019-06-01T10:09:40.398Z,56.80
2019-06-01T10:12:10.033Z,54.10
2019-06-01T10:14:39.724Z,57.90
2019-06-01T10:17:09.379Z,61.40
2019-06-01T10:19:39.075Z,62.10
2019-06-01T10:22:09.883Z,61.80
2019-06-01T10:24:39.569Z,60.90
2019-06-01T10:27:09.165Z,59.80
2019-06-01T10:29:39.979Z,61.90
2019-06-01T10:32:09.823Z,61.40
2019-06-01T10:34:39.914Z,62.40
2019-06-01T10:37:09.936Z,61.90
2019-06-01T10:39:39.665Z,60.90
2019-06-01T10:42:09.423Z,61.00
2019-06-01T10:44:44.077Z,62.10
2019-06-01T10:47:10.443Z,62.60
2019-06-01T10:49:40.159Z,58.40
2019-06-01T10:52:10.068Z,58.40
2019-06-01T10:54:40.275Z,59.50
2019-06-01T10:57:10.207Z,61.10
2019-06-01T10:59:40.551Z,60.10
2019-06-01T11:02:10.467Z,62.00
2019-06-01T11:04:41.140Z,60.70
2019-06-01T11:07:10.920Z,58.40
2019-06-01T11:09:41.174Z,59.30
2019-06-01T11:12:11.004Z,60.00
2019-06-01T11:14:41.270Z,59.90
2019-06-01T11:17:11.230Z,60.60
2019-06-01T11:19:42.128Z,58.50
2019-06-01T11:22:12.213Z,59.40
2019-06-01T11:24:41.820Z,60.20
2019-06-01T11:27:11.628Z,60.40
2019-06-01T11:29:49.090Z,63.20
2019-06-01T11:32:14.174Z,61.20
2019-06-01T11:34:45.719Z,60.60
2019-06-01T11:37:15.937Z,56.20
2019-06-01T11:39:45.653Z,57.20
2019-06-01T11:42:15.293Z,58.20
2019-06-01T11:44:44.975Z,57.00
2019-06-01T11:47:15.887Z,56.80
2019-06-01T11:49:45.550Z,57.60
2019-06-01T11:52:15.112Z,57.60
2019-06-01T11:54:45.456Z,57.50
2019-06-01T11:57:15.380Z,57.90
2019-06-01T11:59:45.734Z,60.50
2019-06-01T12:02:15.367Z,60.90
2019-06-01T12:04:46.384Z,60.00
2019-06-01T12:07:17.898Z,60.40
2019-06-01T12:09:47.346Z,58.40
2019-06-01T12:12:17.053Z,59.80
2019-06-01T12:14:46.882Z,60.90
2019-06-01T12:17:16.655Z,61.30
2019-06-01T12:19:46.921Z,59.80
2019-06-01T12:22:17.399Z,57.70
2019-06-01T12:24:47.380Z,57.60
2019-06-01T12:27:17.906Z,59.50
2019-06-01T12:29:48.253Z,60.00
2019-06-01T12:32:20.348Z,60.20
2019-06-01T12:34:50.070Z,57.70
2019-06-01T12:37:36.226Z,59.30
2019-06-01T12:39:54.146Z,58.80
2019-06-01T12:42:22.453Z,56.50
2019-06-01T12:44:52.131Z,53.80
2019-06-01T12:47:23.121Z,54.70
2019-06-01T12:49:53.849Z,56.30
2019-06-01T12:52:23.533Z,55.40
2019-06-01T12:54:53.238Z,58.40
2019-06-01T12:57:22.883Z,56.70
2019-06-01T12:59:53.150Z,56.10
2019-06-01T13:02:23.159Z,55.30
2019-06-01T13:04:53.265Z,55.60
2019-06-01T13:07:23.235Z,54.40
2019-06-01T13:09:53.778Z,55.50
2019-06-01T13:12:23.527Z,55.00
2019-06-01T13:14:57.898Z,53.80
2019-06-01T13:17:27.580Z,55.70
2019-06-01T13:19:57.276Z,54.70
2019-06-01T13:22:26.982Z,55.70
2019-06-01T13:24:56.711Z,56.40
2019-06-01T13:27:26.357Z,56.60
2019-06-01T13:29:56.034Z,56.30
2019-06-01T13:32:25.814Z,55.50
2019-06-01T13:34:57.677Z,56.50
2019-06-01T13:37:27.363Z,56.60
2019-06-01T13:39:58.469Z,58.10
2019-06-01T13:42:28.417Z,59.50
2019-06-01T13:44:58.061Z,57.70
2019-06-01T13:47:27.737Z,56.70
2019-06-01T13:49:57.468Z,57.20
2019-06-01T13:52:27.150Z,56.00
2019-06-01T13:54:56.846Z,57.10
2019-06-01T13:57:26.525Z,56.00
2019-06-01T13:59:56.237Z,57.10
2019-06-01T14:02:26.001Z,57.20
2019-06-01T14:04:56.163Z,56.30
2019-06-01T14:07:25.771Z,57.10
2019-06-01T14:09:55.534Z,57.00
2019-06-01T14:12:25.148Z,56.80
2019-06-01T14:14:55.602Z,56.10
2019-06-01T14:17:25.279Z,57.70
2019-06-01T14:19:55.890Z,59.20
2019-06-01T14:22:25.679Z,59.10
2019-06-01T14:25:10.459Z,54.80
2019-06-01T14:27:26.618Z,54.80
2019-06-01T14:29:56.544Z,54.60
2019-06-01T14:32:26.420Z,56.00
2019-06-01T14:34:56.997Z,56.50
2019-06-01T14:37:27.002Z,56.10
2019-06-01T14:39:57.116Z,58.10
2019-06-01T14:42:27.050Z,56.00
2019-06-01T14:44:58.023Z,58.20
2019-06-01T14:47:28.132Z,59.10
2019-06-01T14:49:58.076Z,61.00
2019-06-01T14:52:27.777Z,60.70
2019-06-01T14:54:58.039Z,60.00
2019-06-01T14:57:27.724Z,59.50
2019-06-01T14:59:58.212Z,58.20
2019-06-01T15:02:28.086Z,58.10
2019-06-01T15:04:58.655Z,58.40
2019-06-01T15:07:29.994Z,57.60
2019-06-01T15:09:59.653Z,58.40
2019-06-01T15:12:29.388Z,57.50
2019-06-01T15:14:59.585Z,56.20
2019-06-01T15:17:29.488Z,56.10
2019-06-01T15:19:59.237Z,56.90
2019-06-01T15:22:30.499Z,54.10
2019-06-01T15:25:00.146Z,54.90
2019-06-01T15:27:29.840Z,56.90
2019-06-01T15:29:59.508Z,52.90
2019-06-01T15:32:29.177Z,51.80
2019-06-01T15:34:59.918Z,54.00
2019-06-01T15:37:29.728Z,54.50
2019-06-01T15:39:59.517Z,54.00
2019-06-01T15:42:29.257Z,52.50
2019-06-01T15:44:59.235Z,51.40
2019-06-01T15:47:29.098Z,51.00
2019-06-01T15:49:59.902Z,51.20
2019-06-01T15:52:29.906Z,50.80
2019-06-01T15:55:00.491Z,52.40
2019-06-01T15:57:31.637Z,52.90
2019-06-01T16:00:01.300Z,51.80
2019-06-01T16:02:33.188Z,51.20
2019-06-01T16:05:03.355Z,51.70
2019-06-01T16:07:34.046Z,53.00
2019-06-01T16:10:08.029Z,52.10
2019-06-01T16:12:36.870Z,51.20
2019-06-01T16:15:08.807Z,51.20
2019-06-01T16:17:38.768Z,51.50
2019-06-01T16:20:09.710Z,52.00
2019-06-01T16:22:39.390Z,52.30
2019-06-01T16:25:09.617Z,53.00
2019-06-01T16:27:39.283Z,52.00
2019-06-01T16:30:10.096Z,51.00
2019-06-01T16:32:40.035Z,51.20
2019-06-01T16:35:10.201Z,51.60
2019-06-01T16:37:40.166Z,50.60
2019-06-01T16:40:10.927Z,50.10
2019-06-01T16:42:41.226Z,50.40
2019-06-01T16:45:11.845Z,50.80
2019-06-01T16:47:41.520Z,51.70
2019-06-01T16:50:12.765Z,51.20
2019-06-01T16:52:42.399Z,51.80
2019-06-01T16:55:12.740Z,52.70
2019-06-01T16:57:42.449Z,53.10
2019-06-01T17:00:12.858Z,53.70
2019-06-01T17:02:42.450Z,54.70
2019-06-01T17:05:13.508Z,55.30
2019-06-01T17:07:43.161Z,55.30
2019-06-01T17:10:25.595Z,56.10
2019-06-01T17:12:45.759Z,56.50
2019-06-01T17:15:17.520Z,56.20
2019-06-01T17:17:47.621Z,56.40
2019-06-01T17:20:20.333Z,57.00
2019-06-01T17:22:49.800Z,57.40
2019-06-01T17:25:19.476Z,57.60
2019-06-01T17:27:49.043Z,57.80
2019-06-01T17:30:18.664Z,58.10
2019-06-01T17:32:48.332Z,59.20
2019-06-01T17:35:18.993Z,59.50
2019-06-01T17:37:48.539Z,60.10
2019-06-01T17:40:33.634Z,60.00
2019-06-01T17:42:50.023Z,60.50
2019-06-01T17:45:19.752Z,60.20
2019-06-01T17:47:49.362Z,60.70
2019-06-01T17:50:22.271Z,59.70
2019-06-01T17:52:51.940Z,60.40
2019-06-01T17:55:24.621Z,60.40
2019-06-01T17:57:54.299Z,61.50
2019-06-01T18:00:23.936Z,60.20
2019-06-01T18:02:53.625Z,60.30
2019-06-01T18:05:23.297Z,59.40
2019-06-01T18:07:53.313Z,60.20
2019-06-01T18:10:24.455Z,59.80
2019-06-01T18:12:54.064Z,59.40
2019-06-01T18:15:23.682Z,59.40
2019-06-01T18:17:53.258Z,59.80
2019-06-01T18:20:22.947Z,60.40
2019-06-01T18:22:52.689Z,61.80
2019-06-01T18:25:25.342Z,64.30
2019-06-01T18:27:54.991Z,65.80
2019-06-01T18:30:25.672Z,66.80
2019-06-01T18:32:56.954Z,68.70
2019-06-01T18:35:26.590Z,68.70
2019-06-01T18:37:56.237Z,69.80
2019-06-01T18:40:27.181Z,71.40
2019-06-01T18:43:00.309Z,72.20
2019-06-01T18:45:30.391Z,71.90
2019-06-01T18:48:00.033Z,72.20
2019-06-01T18:50:29.671Z,72.50
2019-06-01T18:53:00.594Z,73.10
2019-06-01T18:55:30.212Z,73.70
2019-06-01T18:58:02.036Z,73.90
2019-06-01T19:00:31.660Z,74.20
2019-06-01T19:03:01.441Z,74.40
2019-06-01T19:05:31.149Z,75.30
2019-06-01T19:08:00.808Z,77.40
2019-06-01T19:10:30.461Z,78.60
2019-06-01T19:13:00.105Z,78.60
2019-06-01T19:15:29.788Z,78.20
2019-06-01T19:17:59.399Z,78.60
2019-06-01T19:20:32.468Z,79.30
2019-06-01T19:23:00.388Z,79.70
2019-06-01T19:25:30.015Z,80.30
2019-06-01T19:27:59.579Z,80.40
2019-06-01T19:30:32.368Z,81.30
2019-06-01T19:33:06.999Z,81.50
2019-06-01T19:35:37.051Z,82.30
2019-06-01T19:38:07.017Z,83.40
2019-06-01T19:40:39.372Z,83.20
2019-06-01T19:43:11.567Z,82.80
2019-06-01T19:45:41.442Z,82.80
2019-06-01T19:48:14.514Z,83.40
2019-06-01T19:50:44.413Z,84.00
2019-06-01T19:53:14.779Z,84.70
2019-06-01T19:55:44.745Z,85.40
2019-06-01T19:58:14.473Z,85.70
2019-06-01T20:00:44.205Z,86.20
2019-06-01T20:03:14.454Z,86.70
2019-06-01T20:05:45.151Z,86.80
2019-06-01T20:08:16.069Z,87.00
2019-06-01T20:10:46.059Z,87.30
2019-06-01T20:13:15.683Z,87.70
2019-06-01T20:15:45.353Z,87.80
2019-06-01T20:18:15.082Z,88.00
2019-06-01T20:20:44.852Z,88.30
2019-06-01T20:23:15.293Z,88.40
2019-06-01T20:25:45.141Z,88.30
2019-06-01T20:28:15.614Z,88.20
2019-06-01T20:30:45.613Z,88.20
2019-06-01T20:33:15.968Z,88.20
2019-06-01T20:35:45.850Z,88.30
2019-06-01T20:38:16.647Z,88.30
2019-06-01T20:40:46.623Z,88.30
2019-06-01T20:43:16.656Z,88.40
2019-06-01T20:45:46.550Z,88.70
2019-06-01T20:48:18.626Z,89.20
2019-06-01T20:50:49.196Z,89.80
2019-06-01T20:53:19.017Z,90.50
2019-06-01T20:55:48.664Z,90.30
2019-06-01T20:58:19.484Z,90.40
2019-06-01T21:00:49.510Z,90.50
2019-06-01T21:03:19.763Z,90.70
2019-06-01T21:05:49.446Z,90.80
2019-06-01T21:08:20.290Z,91.00
2019-06-01T21:10:50.047Z,91.10
2019-06-01T21:13:20.195Z,91.20
2019-06-01T21:15:51.277Z,91.70
2019-06-01T21:18:21.000Z,91.50
2019-06-01T21:20:51.428Z,91.60
2019-06-01T21:23:21.109Z,91.70
2019-06-01T21:25:50.730Z,91.60
2019-06-01T21:28:22.074Z,91.40
2019-06-01T21:30:51.702Z,91.40
2019-06-01T21:33:21.733Z,91.60
2019-06-01T21:35:52.556Z,91.90
2019-06-01T21:38:23.575Z,92.10
2019-06-01T21:40:54.655Z,92.20
2019-06-01T21:43:33.123Z,92.30
2019-06-01T21:45:55.597Z,92.10
2019-06-01T21:48:25.883Z,92.10
2019-06-01T21:50:56.121Z,92.40
2019-06-01T21:53:26.660Z,92.70
2019-06-01T21:55:56.525Z,93.00
2019-06-01T21:58:28.633Z,93.20
2019-06-01T22:00:58.723Z,93.10
2019-06-01T22:03:30.001Z,92.90
2019-06-01T22:05:59.622Z,92.80
2019-06-01T22:08:29.261Z,93.00
2019-06-01T22:10:58.890Z,93.20
2019-06-01T22:13:28.987Z,93.50
2019-06-01T22:15:58.910Z,93.70
2019-06-01T22:18:28.535Z,93.80
2019-06-01T22:20:58.244Z,93.90
2019-06-01T22:23:28.217Z,94.00
2019-06-01T22:25:58.315Z,94.10
2019-06-01T22:28:28.598Z,94.00
2019-06-01T22:30:58.879Z,94.00
2019-06-01T22:33:28.859Z,94.10
2019-06-01T22:35:58.949Z,94.20
2019-06-01T22:38:28.564Z,94.30
2019-06-01T22:40:59.322Z,94.60
2019-06-01T22:43:43.723Z,94.80
2019-06-01T22:46:00.213Z,94.90
2019-06-01T22:48:29.849Z,94.90
2019-06-01T22:50:59.467Z,95.20
2019-06-01T22:53:29.000Z,94.90
2019-06-01T22:55:58.636Z,94.90
2019-06-01T22:58:29.507Z,95.00
2019-06-01T23:00:59.461Z,95.10
2019-06-01T23:03:30.195Z,95.20
2019-06-01T23:06:00.290Z,95.20
2019-06-01T23:08:29.943Z,95.30
2019-06-01T23:10:59.564Z,95.30
2019-06-01T23:13:30.270Z,95.20
2019-06-01T23:16:00.072Z,95.20
2019-06-01T23:18:29.921Z,95.30
2019-06-01T23:20:59.578Z,95.40
2019-06-01T23:23:30.497Z,95.60
2019-06-01T23:26:00.198Z,95.70
2019-06-01T23:28:30.440Z,95.70
2019-06-01T23:31:00.333Z,95.80
2019-06-01T23:33:30.975Z,96.20
2019-06-01T23:36:00.804Z,96.00
2019-06-01T23:38:30.806Z,96.00
2019-06-01T23:41:00.540Z,96.10
2019-06-01T23:43:30.898Z,96.20
2019-06-01T23:46:00.755Z,96.30
2019-06-01T23:48:31.310Z,96.50
2019-06-01T23:51:01.092Z,96.80
2019-06-01T23:53:31.622Z,96.90
2019-06-01T23:56:01.460Z,97.00
2019-06-01T23:58:32.546Z,97.20
